Time;durP1;ratioP1;P1;durP2;ratioP2;P2;SDS_P1;SDS_P2;PMS_P1;PMS_P2;Temp;Humidity;BMP_temperature;BMP_pressure;BME280_temperature;BME280_humidity;BME280_pressure;Samples;Min_cycle;Max_cycle;Signal;HPM_P1;HPM_P2
2024/01/08 00:02:18;;;;;;;1.55;1.40;;;;;;;18.35;43.90;103155.69;5042115;28;20340;-35
2024/01/08 00:04:43;;;;;;;2.55;1.30;;;;;;;18.34;44.02;103161.41;5045412;28;20449;-35
2024/01/08 00:07:08;;;;;;;2.75;1.55;;;;;;;18.31;44.00;103153.59;5040831;28;20032;-36
2024/01/08 00:09:34;;;;;;;2.58;1.60;;;;;;;18.30;43.99;103161.03;5040754;28;20021;-37
2024/01/08 00:11:59;;;;;;;3.50;1.27;;;;;;;18.28;44.00;103160.38;5042966;28;20032;-36
2024/01/08 00:14:24;;;;;;;2.25;1.52;;;;;;;18.26;43.56;103154.31;5041445;28;20083;-37
2024/01/08 00:16:50;;;;;;;1.80;1.50;;;;;;;18.24;43.87;103157.25;5040318;28;20071;-36
2024/01/08 00:19:16;;;;;;;1.92;1.27;;;;;;;18.22;44.07;103159.41;5041023;28;20032;-36
2024/01/08 00:21:41;;;;;;;2.08;1.48;;;;;;;18.22;44.00;103159.41;5041249;28;20029;-37
2024/01/08 00:24:07;;;;;;;2.55;1.30;;;;;;;18.20;43.76;103152.44;5041729;28;20033;-37
2024/01/08 00:26:32;;;;;;;2.78;1.50;;;;;;;18.18;43.98;103149.91;5040047;28;20029;-36
2024/01/08 00:28:59;;;;;;;2.25;1.25;;;;;;;18.16;43.92;103152.06;5040293;28;20504;-37
2024/01/08 00:31:24;;;;;;;1.30;1.20;;;;;;;18.16;44.04;103153.94;5041942;28;20079;-36
2024/01/08 00:33:50;;;;;;;2.55;1.40;;;;;;;18.14;44.02;103161.56;5040779;28;20026;-36
2024/01/08 00:36:15;;;;;;;2.15;1.30;;;;;;;18.14;44.02;103165.16;5037695;28;20056;-36
2024/01/08 00:38:40;;;;;;;2.75;1.52;;;;;;;18.11;44.09;103158.19;5040926;28;20072;-35
2024/01/08 00:41:06;;;;;;;2.00;1.55;;;;;;;18.09;44.11;103154.81;5051878;28;20035;-37
2024/01/08 00:43:31;;;;;;;1.95;1.50;;;;;;;18.07;43.73;103154.19;5040337;28;20037;-36
2024/01/08 00:45:57;;;;;;;1.88;1.38;;;;;;;18.06;44.05;103149.78;5041689;28;20036;-36
2024/01/08 00:48:22;;;;;;;1.70;1.33;;;;;;;18.06;43.99;103159.91;5040910;28;20033;-37
2024/01/08 00:50:48;;;;;;;3.33;1.48;;;;;;;18.03;43.93;103158.47;5041923;28;20082;-37
2024/01/08 00:53:13;;;;;;;1.48;1.33;;;;;;;18.01;43.73;103157.81;5042788;28;20060;-36
2024/01/08 00:55:38;;;;;;;1.90;1.30;;;;;;;18.00;43.96;103158.91;5042422;28;20056;-36
2024/01/08 00:58:04;;;;;;;1.65;1.17;;;;;;;17.99;43.71;103154.47;5041675;28;20421;-37
2024/01/08 01:00:31;;;;;;;1.98;1.40;;;;;;;17.97;43.73;103153.84;5040771;28;20048;-36
2024/01/08 01:02:56;;;;;;;2.67;1.20;;;;;;;17.96;43.82;103155.78;5038237;28;20033;-36
2024/01/08 01:05:21;;;;;;;1.40;1.30;;;;;;;17.95;43.71;103158.72;5043856;28;20374;-37
2024/01/08 01:07:47;;;;;;;2.20;1.20;;;;;;;17.93;43.51;103153.41;5042507;28;20123;-37
2024/01/08 01:10:12;;;;;;;1.77;1.20;;;;;;;17.92;43.75;103159.97;5041574;28;20079;-36
2024/01/08 01:12:37;;;;;;;3.58;1.20;;;;;;;17.89;43.70;103162.31;5040533;28;20457;-36
2024/01/08 01:15:03;;;;;;;1.50;1.17;;;;;;;17.90;43.49;103164.00;5041372;28;20389;-37
2024/01/08 01:17:28;;;;;;;2.08;1.20;;;;;;;17.88;43.34;103158.72;5044653;28;20021;-37
2024/01/08 01:19:54;;;;;;;2.65;1.42;;;;;;;17.87;43.43;103161.72;5042854;28;20068;-37
2024/01/08 01:22:19;;;;;;;2.53;1.27;;;;;;;17.85;43.92;103166.56;5041861;28;20028;-36
2024/01/08 01:24:44;;;;;;;1.20;1.10;;;;;;;17.85;43.30;103169.31;5041710;28;20116;-36
2024/01/08 01:27:10;;;;;;;1.50;1.40;;;;;;;17.82;43.36;103167.84;5042468;28;20049;-36
2024/01/08 01:29:35;;;;;;;1.55;1.40;;;;;;;17.82;43.42;103159.63;5040330;28;20025;-36
2024/01/08 01:32:01;;;;;;;1.50;1.30;;;;;;;17.79;43.35;103171.88;5039254;28;20020;-36
2024/01/08 01:34:26;;;;;;;1.40;1.30;;;;;;;17.79;43.19;103171.88;5042287;28;20029;-36
2024/01/08 01:36:52;;;;;;;1.92;1.67;;;;;;;17.77;43.34;103164.91;5041195;28;20028;-35
2024/01/08 01:39:17;;;;;;;1.88;1.30;;;;;;;17.75;43.03;103184.31;5042410;28;20322;-36
2024/01/08 01:41:43;;;;;;;1.88;1.23;;;;;;;17.74;43.25;103190.03;5046673;28;20021;-36
2024/01/08 01:44:08;;;;;;;1.70;1.30;;;;;;;17.73;43.26;103188.34;5041247;28;20040;-36
2024/01/08 01:46:41;;;;;;;1.65;1.30;;;;;;;17.70;43.31;103189.63;5041331;28;20044;-37
2024/01/08 01:49:11;;;;;;;1.25;1.10;;;;;;;17.70;43.25;103189.63;5041455;28;20068;-37
2024/01/08 01:51:39;;;;;;;1.83;1.45;;;;;;;17.69;43.30;103196.16;5039444;28;20029;-37
2024/01/08 01:54:05;;;;;;;1.52;1.30;;;;;;;17.68;43.17;103196.38;5040466;28;20470;-37
2024/01/08 01:56:30;;;;;;;1.40;1.30;;;;;;;17.66;43.09;103199.34;5042003;28;20041;-37
2024/01/08 01:58:56;;;;;;;1.58;1.30;;;;;;;17.65;43.07;103203.16;5046016;28;20537;-37
2024/01/08 02:01:21;;;;;;;2.67;1.30;;;;;;;17.64;43.20;103202.31;5043568;28;20021;-36
2024/01/08 02:03:47;;;;;;;1.30;1.20;;;;;;;17.64;42.86;103202.31;5044829;28;20086;-37
2024/01/08 02:06:13;;;;;;;2.13;1.17;;;;;;;17.62;43.13;103204.44;5043321;28;20025;-37
2024/01/08 02:08:38;;;;;;;1.42;1.30;;;;;;;17.61;42.89;103213.72;5059514;28;20025;-37
2024/01/08 02:11:04;;;;;;;1.08;1.08;;;;;;;17.60;42.86;103202.97;5046399;28;20279;-37
2024/01/08 02:13:29;;;;;;;1.60;1.40;;;;;;;17.59;42.44;103196.63;5045450;28;20025;-37
2024/01/08 02:15:55;;;;;;;1.33;1.23;;;;;;;17.57;42.72;103208.88;5044753;28;20033;-37
2024/01/08 02:18:20;;;;;;;1.58;1.38;;;;;;;17.56;42.74;103204.44;5046278;28;20033;-37
2024/01/08 02:20:46;;;;;;;1.45;1.33;;;;;;;17.53;42.76;103197.50;5051854;28;20021;-37
2024/01/08 02:23:11;;;;;;;1.40;1.20;;;;;;;17.52;42.75;103192.22;5046528;28;20111;-36
2024/01/08 02:25:37;;;;;;;2.00;1.25;;;;;;;17.51;42.91;103204.25;5044905;28;20024;-37
2024/01/08 02:28:03;;;;;;;1.55;1.45;;;;;;;17.49;42.71;103208.06;5045048;28;20072;-36
2024/01/08 02:30:28;;;;;;;1.50;1.10;;;;;;;17.48;42.61;103200.06;5042628;28;20036;-36
2024/01/08 02:32:53;;;;;;;1.45;1.20;;;;;;;17.46;42.63;103203.00;5046574;28;20498;-36
2024/01/08 02:35:19;;;;;;;1.35;1.25;;;;;;;17.45;42.74;103195.84;5046090;28;20060;-35
2024/01/08 02:37:44;;;;;;;1.10;1.10;;;;;;;17.45;42.64;103200.50;5044513;28;20079;-36
2024/01/08 02:40:11;;;;;;;2.15;1.45;;;;;;;17.42;42.55;103193.53;5044641;28;20039;-37
2024/01/08 02:42:40;;;;;;;1.38;1.20;;;;;;;17.43;42.40;103202.59;5045983;28;20025;-36
2024/01/08 02:45:07;;;;;;;1.75;1.38;;;;;;;17.42;42.52;103198.19;5043829;28;20031;-36
2024/01/08 02:47:37;;;;;;;1.85;1.50;;;;;;;17.40;42.40;103216.72;5046284;28;20567;-37
2024/01/08 02:50:06;;;;;;;1.42;1.30;;;;;;;17.39;42.52;103206.84;5044805;28;20032;-37
2024/01/08 02:52:31;;;;;;;1.88;1.50;;;;;;;17.37;42.43;103203.47;5044277;28;20036;-37
2024/01/08 02:54:57;;;;;;;1.52;1.38;;;;;;;17.33;42.51;103212.09;5044788;28;20028;-37
2024/01/08 02:57:22;;;;;;;1.60;1.50;;;;;;;17.33;42.49;103214.03;5044056;28;20036;-37
2024/01/08 02:59:48;;;;;;;1.60;1.40;;;;;;;17.32;42.46;103213.16;5044759;28;20070;-37
2024/01/08 03:02:13;;;;;;;1.65;1.40;;;;;;;17.33;42.49;103214.03;5045232;28;20037;-37
2024/01/08 03:04:39;;;;;;;1.48;1.33;;;;;;;17.31;42.35;103214.25;5042536;28;20040;-38
2024/01/08 03:07:04;;;;;;;1.40;1.30;;;;;;;17.31;42.33;103213.38;5043761;28;20033;-37
2024/01/08 03:09:29;;;;;;;1.63;1.52;;;;;;;17.28;42.42;103211.91;5041825;28;20040;-36
2024/01/08 03:11:55;;;;;;;1.98;1.50;;;;;;;17.28;42.27;103222.88;5044141;28;20273;-35
2024/01/08 03:14:21;;;;;;;1.40;1.30;;;;;;;17.27;42.41;103218.44;5042897;28;20052;-36
2024/01/08 03:16:47;;;;;;;1.67;1.38;;;;;;;17.26;42.25;103221.41;5044321;28;20065;-36
2024/01/08 03:19:12;;;;;;;2.67;1.65;;;;;;;17.25;42.33;103214.25;5043395;28;20029;-36
2024/01/08 03:21:39;;;;;;;1.42;1.30;;;;;;;17.23;42.12;103214.47;5045085;28;20017;-36
2024/01/08 03:24:05;;;;;;;1.88;1.50;;;;;;;17.22;42.10;103215.50;5036755;28;20063;-36
2024/01/08 03:26:30;;;;;;;3.45;1.40;;;;;;;17.20;42.09;103220.34;5059800;28;20029;-36
2024/01/08 03:28:55;;;;;;;1.52;1.40;;;;;;;17.19;42.35;103215.97;5042482;28;20041;-37
2024/01/08 03:31:21;;;;;;;2.15;1.50;;;;;;;17.20;42.26;103225.00;5042543;28;20025;-37
2024/01/08 03:33:46;;;;;;;1.50;1.40;;;;;;;17.18;42.29;103227.97;5045506;28;20032;-37
2024/01/08 03:36:12;;;;;;;1.70;1.60;;;;;;;17.18;42.00;103219.75;5047862;28;20545;-37
2024/01/08 03:38:37;;;;;;;3.88;1.40;;;;;;;17.17;42.24;103224.38;5043381;28;20116;-37
2024/01/08 03:41:03;;;;;;;2.72;1.70;;;;;;;17.16;42.21;103225.41;5044942;28;20098;-46
2024/01/08 03:43:29;;;;;;;2.55;1.63;;;;;;;17.15;42.13;103225.66;5046468;28;20017;-36
2024/01/08 03:45:57;;;;;;;2.13;1.50;;;;;;;17.15;41.98;103228.38;5039428;28;20036;-37
2024/01/08 03:48:22;;;;;;;2.10;1.50;;;;;;;17.14;41.95;103234.91;5042735;28;20029;-37
2024/01/08 03:50:48;;;;;;;2.10;1.60;;;;;;;17.12;42.18;103237.88;5042164;28;20032;-37
2024/01/08 03:53:13;;;;;;;2.13;1.60;;;;;;;17.11;42.00;103243.59;5044221;28;20422;-36
2024/01/08 03:55:38;;;;;;;2.05;1.70;;;;;;;17.08;42.07;103231.16;5042957;28;20048;-37
2024/01/08 03:58:04;;;;;;;1.58;1.40;;;;;;;17.10;42.12;103233.66;5041074;28;20032;-36
2024/01/08 04:00:29;;;;;;;2.45;1.58;;;;;;;17.08;42.16;103242.09;5043917;28;20029;-37
2024/01/08 04:02:55;;;;;;;1.85;1.65;;;;;;;17.07;42.18;103229.47;5043129;28;20049;-37
2024/01/08 04:05:20;;;;;;;3.28;1.80;;;;;;;17.04;41.92;103238.09;5044389;28;20120;-36
2024/01/08 04:07:46;;;;;;;1.90;1.50;;;;;;;17.04;42.02;103232.59;5042568;28;20139;-36
2024/01/08 04:10:11;;;;;;;1.88;1.70;;;;;;;17.04;42.06;103240.00;5041803;28;20490;-36
2024/01/08 04:12:36;;;;;;;2.22;1.70;;;;;;;17.02;41.95;103242.09;5043595;28;20016;-36
2024/01/08 04:15:02;;;;;;;2.65;1.75;;;;;;;17.00;41.89;103245.06;5042732;28;20692;-37
2024/01/08 04:17:28;;;;;;;2.22;1.70;;;;;;;17.02;41.87;103240.22;5042835;28;20029;-36
2024/01/08 04:19:53;;;;;;;2.05;1.77;;;;;;;17.06;41.85;103238.72;5041753;28;20039;-36
2024/01/08 04:22:19;;;;;;;1.45;1.35;;;;;;;17.11;41.85;103238.09;5041012;28;20032;-37
2024/01/08 04:24:44;;;;;;;2.92;1.63;;;;;;;17.15;41.92;103233.88;5043170;28;20028;-36
2024/01/08 04:27:09;;;;;;;1.65;1.55;;;;;;;17.21;42.07;103230.28;5043267;28;20329;-36
2024/01/08 04:29:35;;;;;;;2.63;1.55;;;;;;;17.29;41.71;103240.19;5042489;28;20047;-36
2024/01/08 04:32:01;;;;;;;2.30;1.70;;;;;;;17.38;41.73;103249.84;5042323;28;20028;-36
2024/01/08 04:34:26;;;;;;;2.05;1.60;;;;;;;17.44;41.76;103245.41;5041785;28;20047;-37
2024/01/08 04:36:52;;;;;;;1.75;1.65;;;;;;;17.49;41.74;103245.59;5057543;28;20473;-36
2024/01/08 04:39:17;;;;;;;2.10;1.90;;;;;;;17.57;41.75;103252.75;5041713;28;20029;-37
2024/01/08 04:41:43;;;;;;;2.70;1.65;;;;;;;17.63;41.69;103246.41;5042038;28;20063;-37
2024/01/08 04:44:09;;;;;;;2.13;1.50;;;;;;;17.68;41.93;103245.75;5041459;28;20035;-37
2024/01/08 04:46:34;;;;;;;2.05;1.75;;;;;;;17.74;41.88;103243.00;5041318;28;20033;-37
2024/01/08 04:49:01;;;;;;;1.83;1.70;;;;;;;17.79;41.92;103245.94;5044024;28;20033;-37
2024/01/08 04:51:27;;;;;;;2.40;1.98;;;;;;;17.88;41.82;103251.16;5043553;28;20024;-37
2024/01/08 04:53:52;;;;;;;2.40;1.67;;;;;;;17.95;41.80;103249.25;5042959;28;20040;-35
2024/01/08 04:56:22;;;;;;;1.83;1.55;;;;;;;18.03;41.82;103253.66;5043627;28;20021;-37
2024/01/08 04:58:49;;;;;;;1.70;1.60;;;;;;;18.12;41.68;103244.97;5041932;28;20028;-38
2024/01/08 05:01:14;;;;;;;1.88;1.67;;;;;;;18.20;41.58;103245.78;5054102;28;20535;-37
2024/01/08 05:03:41;;;;;;;2.58;1.80;;;;;;;18.28;41.44;103246.34;5042793;28;20037;-37
2024/01/08 05:06:06;;;;;;;2.92;1.80;;;;;;;18.36;41.58;103244.41;5041475;28;20033;-37
2024/01/08 05:08:32;;;;;;;1.85;1.65;;;;;;;18.44;41.49;103253.22;5043070;28;20031;-37
2024/01/08 05:10:57;;;;;;;2.85;2.05;;;;;;;18.51;41.29;103247.66;5042379;28;20033;-43
2024/01/08 05:13:23;;;;;;;2.08;1.85;;;;;;;18.59;41.36;103246.56;5037154;28;20025;-37
2024/01/08 05:15:48;;;;;;;3.30;2.05;;;;;;;18.66;41.00;103241.00;5039574;28;20064;-37
2024/01/08 05:18:13;;;;;;;2.55;1.75;;;;;;;18.73;41.25;103239.06;5038506;28;20039;-37
2024/01/08 05:20:39;;;;;;;1.92;1.73;;;;;;;18.77;41.22;103230.16;5040155;28;20528;-37
2024/01/08 05:23:04;;;;;;;2.38;1.90;;;;;;;18.84;40.96;103227.31;5039757;28;20041;-37
2024/01/08 05:25:31;;;;;;;3.80;1.80;;;;;;;18.89;41.14;103240.41;5041462;28;20060;-37
2024/01/08 05:27:57;;;;;;;2.28;2.08;;;;;;;18.94;41.04;103232.34;5041670;28;20029;-35
2024/01/08 05:30:22;;;;;;;3.22;1.83;;;;;;;18.98;40.65;103230.84;5038934;28;20512;-36
2024/01/08 05:32:50;;;;;;;3.40;2.00;;;;;;;19.02;40.90;103226.56;5039689;28;20544;-37
2024/01/08 05:35:15;;;;;;;1.92;1.70;;;;;;;19.06;40.70;103230.53;5046860;28;20036;-37
2024/01/08 05:37:41;;;;;;;2.42;1.90;;;;;;;19.10;40.67;103233.69;5042281;28;20029;-38
2024/01/08 05:40:07;;;;;;;5.00;2.10;;;;;;;19.11;40.79;103231.78;5038980;28;20410;-38
2024/01/08 05:42:32;;;;;;;3.05;2.08;;;;;;;19.13;40.93;103227.75;5039914;28;20067;-37
2024/01/08 05:44:58;;;;;;;3.17;1.92;;;;;;;19.12;40.88;103231.56;5042971;28;20142;-37
2024/01/08 05:47:23;;;;;;;3.85;2.10;;;;;;;19.11;40.85;103229.03;5042084;28;20521;-37
2024/01/08 05:49:49;;;;;;;2.05;1.85;;;;;;;19.07;40.61;103228.66;5039717;28;20069;-37
2024/01/08 05:52:14;;;;;;;2.10;1.90;;;;;;;19.02;40.67;103225.75;5043796;28;20051;-38
2024/01/08 05:54:39;;;;;;;4.72;2.10;;;;;;;18.99;40.57;103229.75;5040176;28;20408;-36
2024/01/08 05:57:05;;;;;;;3.65;1.90;;;;;;;18.95;40.88;103225.78;5040173;28;20474;-37
2024/01/08 05:59:30;;;;;;;2.70;1.95;;;;;;;18.91;40.63;103225.41;5043469;28;20055;-37
2024/01/08 06:01:55;;;;;;;3.20;1.80;;;;;;;18.90;40.71;103239.34;5040551;28;20072;-36
2024/01/08 06:04:21;;;;;;;2.65;2.03;;;;;;;18.86;41.00;103227.94;5040327;28;20037;-36
2024/01/08 06:06:48;;;;;;;3.40;2.00;;;;;;;18.86;40.82;103232.59;5040100;28;20151;-37
2024/01/08 06:09:14;;;;;;;2.22;2.00;;;;;;;18.86;40.45;103227.09;5040032;28;20021;-37
2024/01/08 06:11:40;;;;;;;2.05;1.85;;;;;;;18.86;40.59;103233.44;5055768;28;20386;-37
2024/01/08 06:14:06;;;;;;;2.78;2.03;;;;;;;18.88;40.44;103235.97;5041728;28;20021;-37
2024/01/08 06:16:35;;;;;;;2.47;2.08;;;;;;;18.91;40.54;103241.06;5038726;28;20032;-37
2024/01/08 06:19:03;;;;;;;2.20;2.00;;;;;;;18.94;40.36;103243.34;5040956;28;20036;-37
2024/01/08 06:21:29;;;;;;;2.33;2.03;;;;;;;18.97;40.48;103233.81;5039177;28;20031;-36
2024/01/08 06:23:54;;;;;;;2.13;1.92;;;;;;;18.98;39.96;103230.84;5041512;28;20040;-37
2024/01/08 06:26:20;;;;;;;2.33;2.05;;;;;;;19.00;40.41;103236.94;5039455;28;20124;-37
2024/01/08 06:28:45;;;;;;;2.75;2.00;;;;;;;19.02;40.14;103231.25;5041200;28;20520;-37
2024/01/08 06:31:10;;;;;;;2.20;2.00;;;;;;;19.03;40.45;103233.75;5039520;28;20029;-37
2024/01/08 06:33:37;;;;;;;2.20;1.88;;;;;;;19.03;40.64;103241.13;5040123;28;20025;-37
2024/01/08 06:36:03;;;;;;;2.20;2.00;;;;;;;19.01;40.46;103221.31;5038197;28;20102;-37
2024/01/08 06:38:28;;;;;;;3.78;2.10;;;;;;;18.99;40.51;103228.94;5042510;28;20032;-38
2024/01/08 06:40:53;;;;;;;2.63;2.13;;;;;;;18.97;40.33;103237.41;5041565;28;20034;-37
2024/01/08 06:43:19;;;;;;;2.97;2.00;;;;;;;18.95;40.35;103235.94;5041113;28;20036;-37
2024/01/08 06:45:44;;;;;;;2.50;2.13;;;;;;;18.92;40.46;103240.81;5044200;28;20299;-37
2024/01/08 06:48:09;;;;;;;3.28;2.00;;;;;;;18.91;40.61;103235.56;5044678;28;20071;-37
2024/01/08 06:50:36;;;;;;;3.78;2.03;;;;;;;18.89;40.45;103235.72;5043192;28;20468;-37
2024/01/08 06:53:02;;;;;;;2.83;2.08;;;;;;;18.87;40.32;103229.66;5044007;28;20031;-37
2024/01/08 06:55:27;;;;;;;2.95;2.25;;;;;;;18.87;40.40;103232.38;5045272;28;20493;-37
2024/01/08 06:57:53;;;;;;;2.45;2.10;;;;;;;18.87;40.34;103237.03;5044389;28;20021;-37
2024/01/08 07:00:19;;;;;;;2.55;2.10;;;;;;;18.87;40.09;103234.28;5051895;28;20571;-37
2024/01/08 07:02:44;;;;;;;2.90;2.00;;;;;;;18.88;40.21;103242.31;5044446;28;20047;-36
2024/01/08 07:05:10;;;;;;;2.30;2.10;;;;;;;18.91;39.98;103243.81;5052039;28;20052;-37
2024/01/08 07:07:37;;;;;;;2.55;2.13;;;;;;;18.92;39.95;103238.06;5043777;28;20267;-37
2024/01/08 07:10:03;;;;;;;2.60;2.10;;;;;;;18.95;40.04;103233.22;5041159;28;20037;-37
2024/01/08 07:12:28;;;;;;;2.53;2.20;;;;;;;18.96;39.99;103243.97;5044066;28;20501;-36
2024/01/08 07:14:54;;;;;;;3.03;2.30;;;;;;;18.98;39.94;103246.47;5044328;28;20028;-37
2024/01/08 07:17:20;;;;;;;2.35;2.15;;;;;;;18.99;40.04;103248.16;5044880;28;20100;-37
2024/01/08 07:19:46;;;;;;;2.75;1.98;;;;;;;18.99;40.39;103248.16;5042536;28;20025;-38
2024/01/08 07:22:11;;;;;;;2.13;1.92;;;;;;;19.00;40.32;103238.84;5044068;28;20122;-36
2024/01/08 07:24:37;;;;;;;3.08;2.00;;;;;;;18.99;40.28;103248.16;5043023;28;20111;-37
2024/01/08 07:27:02;;;;;;;2.38;2.17;;;;;;;18.98;40.20;103254.72;5043870;28;20513;-38
2024/01/08 07:29:28;;;;;;;2.95;2.00;;;;;;;18.96;40.36;103251.34;5043164;28;20032;-37
2024/01/08 07:31:53;;;;;;;2.90;2.10;;;;;;;18.94;40.04;103248.84;5042196;28;20025;-37
2024/01/08 07:34:19;;;;;;;2.75;2.00;;;;;;;18.91;40.27;103244.63;5044379;28;20051;-38
2024/01/08 07:36:44;;;;;;;2.40;1.83;;;;;;;18.90;40.38;103253.06;5043713;28;20116;-38
2024/01/08 07:39:14;;;;;;;2.05;1.80;;;;;;;18.88;40.33;103250.56;5043975;28;20440;-37
2024/01/08 07:41:40;;;;;;;3.15;2.17;;;;;;;18.87;40.34;103254.38;5042016;28;20048;-36
2024/01/08 07:44:06;;;;;;;2.10;1.90;;;;;;;18.87;40.36;103253.50;5042468;28;20099;-36
2024/01/08 07:46:32;;;;;;;2.75;1.90;;;;;;;18.86;40.34;103254.56;5043308;28;20025;-37
2024/01/08 07:48:58;;;;;;;4.43;2.40;;;;;;;18.87;39.99;103248.88;5048394;28;20040;-37
2024/01/08 07:51:24;;;;;;;2.80;2.17;;;;;;;18.89;39.91;103259.63;5041862;28;20289;-37
2024/01/08 07:53:50;;;;;;;5.00;2.25;;;;;;;18.91;39.98;103263.03;5043129;28;20086;-37
2024/01/08 07:56:16;;;;;;;2.35;2.13;;;;;;;18.92;40.05;103250.97;5042666;28;20035;-38
2024/01/08 07:58:41;;;;;;;3.33;2.30;;;;;;;18.95;39.46;103261.50;5042964;28;20025;-38
2024/01/08 08:01:08;;;;;;;2.30;1.98;;;;;;;18.97;40.13;103264.03;5043693;28;20518;-38
2024/01/08 08:03:34;;;;;;;2.10;1.90;;;;;;;18.98;40.02;103255.59;5040121;28;20049;-37
2024/01/08 08:05:59;;;;;;;2.60;2.40;;;;;;;18.98;40.12;103261.06;5043554;28;20452;-37
2024/01/08 08:08:25;;;;;;;2.53;2.25;;;;;;;18.98;39.93;103251.97;5043545;28;20032;-38
2024/01/08 08:10:50;;;;;;;2.83;2.22;;;;;;;18.97;40.02;103250.28;5043510;28;20465;-38
2024/01/08 08:13:16;;;;;;;3.17;2.40;;;;;;;18.93;40.16;103249.91;5041872;28;20571;-36
2024/01/08 08:15:41;;;;;;;2.22;2.03;;;;;;;18.93;40.42;103247.16;5043258;28;20360;-37
2024/01/08 08:18:07;;;;;;;2.42;2.10;;;;;;;18.91;39.98;103255.63;5040378;28;20020;-37
2024/01/08 08:20:33;;;;;;;2.60;1.98;;;;;;;18.90;39.83;103261.31;5046714;28;20032;-37
2024/01/08 08:22:59;;;;;;;2.72;2.13;;;;;;;18.87;40.14;103254.38;5043589;28;20423;-38
2024/01/08 08:25:25;;;;;;;2.00;1.90;;;;;;;18.86;39.99;103263.66;5043389;28;20035;-37
2024/01/08 08:27:50;;;;;;;3.03;2.00;;;;;;;18.84;39.91;103254.81;5043107;28;20393;-38
2024/01/08 08:30:19;;;;;;;4.70;2.05;;;;;;;18.83;40.03;103249.53;5043133;28;20029;-37
2024/01/08 08:32:44;;;;;;;2.97;2.15;;;;;;;18.82;40.17;103264.34;5043327;28;20056;-38
2024/01/08 08:35:10;;;;;;;3.30;2.00;;;;;;;18.81;40.05;103271.75;5041434;28;20124;-38
2024/01/08 08:37:36;;;;;;;2.25;1.80;;;;;;;18.79;40.15;103267.56;5042057;28;20104;-38
2024/01/08 08:40:02;;;;;;;2.20;1.98;;;;;;;18.77;40.01;103276.00;5045209;28;20494;-37
2024/01/08 08:42:27;;;;;;;3.72;1.92;;;;;;;18.76;39.90;103272.41;5041849;28;20130;-36
2024/01/08 08:44:53;;;;;;;2.75;2.17;;;;;;;18.76;39.98;103283.41;5042362;28;20720;-38
2024/01/08 08:47:18;;;;;;;2.50;2.20;;;;;;;18.75;39.83;103278.97;5041802;28;20112;-37
2024/01/08 08:49:44;;;;;;;2.15;1.95;;;;;;;18.75;39.88;103286.38;5039962;28;20025;-38
2024/01/08 08:52:09;;;;;;;4.47;2.15;;;;;;;18.74;39.68;103290.19;5042651;28;20102;-36
2024/01/08 08:54:34;;;;;;;3.05;2.00;;;;;;;18.74;39.58;103291.03;5040452;28;20029;-36
2024/01/08 08:57:00;;;;;;;2.83;2.20;;;;;;;18.74;39.76;103293.78;5041202;28;20082;-37
2024/01/08 08:59:25;;;;;;;2.53;2.10;;;;;;;18.74;39.49;103295.69;5044126;28;20124;-38
2024/01/08 09:01:51;;;;;;;2.50;1.90;;;;;;;18.74;39.43;103292.94;5041326;28;20060;-37
2024/01/08 09:04:16;;;;;;;2.30;2.10;;;;;;;18.75;39.43;103300.94;5041510;28;20068;-37
2024/01/08 09:06:42;;;;;;;4.32;1.80;;;;;;;18.76;39.34;103297.13;5041375;28;20248;-37
2024/01/08 09:09:09;;;;;;;3.28;2.40;;;;;;;18.77;39.13;103300.72;5040896;28;20052;-37
2024/01/08 09:11:35;;;;;;;3.85;2.00;;;;;;;18.80;39.17;103296.69;5041113;28;20112;-37
2024/01/08 09:14:01;;;;;;;2.90;2.00;;;;;;;18.80;39.31;103311.28;5056557;28;20458;-37
2024/01/08 09:16:27;;;;;;;2.33;1.95;;;;;;;18.81;39.12;103304.72;5038617;28;20025;-38
2024/01/08 09:18:53;;;;;;;2.88;1.75;;;;;;;18.83;38.93;103320.97;5042747;28;20762;-38
2024/01/08 09:21:18;;;;;;;3.17;1.88;;;;;;;18.84;39.63;103315.25;5042413;28;20033;-38
2024/01/08 09:23:43;;;;;;;2.85;1.85;;;;;;;18.86;39.11;103317.75;5042680;28;20110;-38
2024/01/08 09:26:09;;;;;;;2.33;1.98;;;;;;;18.86;39.27;103321.38;5041444;28;20036;-36
2024/01/08 09:28:35;;;;;;;3.03;2.05;;;;;;;18.86;39.26;103318.63;5042554;28;20951;-36
2024/01/08 09:31:01;;;;;;;2.38;2.00;;;;;;;18.85;39.44;103322.44;5040087;28;20601;-36
2024/01/08 09:33:26;;;;;;;2.55;1.88;;;;;;;18.84;39.45;103315.25;5040547;28;20035;-36
2024/01/08 09:35:52;;;;;;;2.88;1.90;;;;;;;18.82;39.25;103311.91;5023448;28;20445;-36
2024/01/08 09:38:17;;;;;;;2.78;1.90;;;;;;;18.81;39.49;103323.09;5075003;28;20382;-36
2024/01/08 09:40:43;;;;;;;2.90;1.80;;;;;;;18.79;39.44;103339.81;5042168;28;20170;-36
2024/01/08 09:43:09;;;;;;;2.35;1.77;;;;;;;18.77;39.14;103337.28;5055444;28;20067;-36
2024/01/08 09:45:38;;;;;;;2.80;1.90;;;;;;;18.76;39.10;103332.00;5038386;28;20482;-37
2024/01/08 09:48:05;;;;;;;2.17;1.50;;;;;;;18.74;39.16;103334.16;5040899;28;20067;-36
2024/01/08 09:50:31;;;;;;;1.60;1.50;;;;;;;18.72;39.31;103330.78;5040510;28;20033;-37
2024/01/08 09:52:56;;;;;;;1.70;1.58;;;;;;;18.70;39.25;103344.72;5041174;28;20029;-37
2024/01/08 09:55:22;;;;;;;2.60;1.73;;;;;;;18.68;39.20;103337.78;5044837;28;20035;-36
2024/01/08 09:57:47;;;;;;;1.85;1.70;;;;;;;18.67;38.86;103345.16;5046043;28;20032;-37
2024/01/08 10:00:14;;;;;;;2.28;1.67;;;;;;;18.65;38.92;103354.69;5041565;28;20036;-37
2024/01/08 10:02:40;;;;;;;11.48;1.83;;;;;;;18.65;39.17;103346.44;5041033;28;20045;-38
2024/01/08 10:05:08;;;;;;;12.38;1.90;;;;;;;18.65;38.81;103351.94;5039311;28;20033;-39
2024/01/08 10:07:34;;;;;;;2.45;1.88;;;;;;;18.66;38.29;103348.97;5040610;28;20036;-38
2024/01/08 10:10:00;;;;;;;3.05;1.90;;;;;;;18.66;37.65;103335.22;5041925;28;20031;-39
2024/01/08 10:12:27;;;;;;;2.60;1.92;;;;;;;18.67;37.88;103336.91;5041859;28;20028;-38
2024/01/08 10:14:54;;;;;;;2.90;1.70;;;;;;;18.68;38.23;103346.84;5040116;28;20029;-39
2024/01/08 10:17:23;;;;;;;2.28;1.80;;;;;;;18.71;38.30;103343.69;5040371;28;20028;-39
2024/01/08 10:19:49;;;;;;;2.17;1.70;;;;;;;18.75;38.21;103336.66;5039414;28;20377;-39
2024/01/08 10:22:15;;;;;;;2.35;1.80;;;;;;;18.80;38.14;103346.13;5042761;28;20028;-39
2024/01/08 10:24:42;;;;;;;2.47;1.67;;;;;;;18.84;38.20;103345.47;5044294;28;20063;-36
2024/01/08 10:27:08;;;;;;;2.08;1.63;;;;;;;18.89;38.23;103337.41;5043618;28;20020;-37
2024/01/08 10:29:35;;;;;;;2.70;1.60;;;;;;;18.94;38.37;103336.78;5046952;28;20035;-38
2024/01/08 10:32:00;;;;;;;1.90;1.70;;;;;;;19.01;38.27;103339.47;5042981;28;20074;-38
2024/01/08 10:34:26;;;;;;;2.20;1.92;;;;;;;19.05;38.71;103330.53;5042865;28;20033;-38
2024/01/08 10:36:53;;;;;;;1.63;1.50;;;;;;;19.10;38.29;103326.31;5044267;28;20408;-38
2024/01/08 10:39:18;;;;;;;1.98;1.60;;;;;;;19.12;38.31;103329.69;5043536;28;20358;-36
2024/01/08 10:41:44;;;;;;;2.85;1.73;;;;;;;19.16;38.09;103328.16;5046643;28;20033;-36
2024/01/08 10:44:09;;;;;;;2.00;1.73;;;;;;;19.18;37.98;103318.59;5044287;28;20401;-37
2024/01/08 10:46:41;;;;;;;1.80;1.70;;;;;;;19.20;37.94;103323.88;5044662;28;20037;-38
2024/01/08 10:49:16;;;;;;;2.53;2.05;;;;;;;19.19;37.85;103322.19;5059783;28;20020;-40
2024/01/08 10:51:44;;;;;;;2.25;1.90;;;;;;;19.20;37.78;103312.88;5043226;28;20493;-41
2024/01/08 10:54:10;;;;;;;2.38;1.88;;;;;;;19.19;37.82;103316.69;5036383;28;21276;-38
2024/01/08 10:56:36;;;;;;;1.83;1.70;;;;;;;19.17;37.63;103308.66;5045338;28;20069;-39
2024/01/08 10:59:05;;;;;;;1.85;1.63;;;;;;;19.16;37.50;103323.47;5050882;28;20167;-37
2024/01/08 11:01:32;;;;;;;2.10;1.77;;;;;;;19.15;37.48;103308.03;5042482;28;20485;-40
2024/01/08 11:04:01;;;;;;;1.85;1.70;;;;;;;19.14;37.23;103309.13;5026250;28;20194;-36
2024/01/08 11:06:28;;;;;;;2.72;1.85;;;;;;;19.13;37.28;103307.44;5042370;28;20081;-39
2024/01/08 11:08:56;;;;;;;2.55;1.90;;;;;;;19.12;37.30;103302.19;5042073;28;20021;-39
2024/01/08 11:11:22;;;;;;;2.90;1.77;;;;;;;19.13;36.99;103307.44;5073931;28;20090;-41
2024/01/08 11:13:49;;;;;;;2.08;1.73;;;;;;;19.13;37.44;103303.84;5047996;28;20020;-38
2024/01/08 11:16:20;;;;;;;2.22;1.88;;;;;;;19.13;37.49;103296.47;5044347;28;20119;-38
2024/01/08 11:18:46;;;;;;;2.85;1.80;;;;;;;19.16;37.21;103300.66;5042403;28;20299;-40